Time;durP1;ratioP1;P1;durP2;ratioP2;P2;SDS_P1;SDS_P2;PMS_P1;PMS_P2;Temp;Humidity;BMP_temperature;BMP_pressure;BME280_temperature;BME280_humidity;BME280_pressure;Samples;Min_cycle;Max_cycle;Signal;HPM_P1;HPM_P2
2021/11/01 00:00:38;;;;;;;2.00;0.30;;;20.00;56.00;;;;;;5065978;28;20040;-46
2021/11/01 00:03:06;;;;;;;1.05;0.20;;;19.90;56.50;;;;;;5055932;28;20502;-46
2021/11/01 00:05:34;;;;;;;1.33;0.10;;;20.00;56.00;;;;;;5052634;28;20429;-46
2021/11/01 00:08:01;;;;;;;0.70;0.30;;;19.90;55.90;;;;;;5054634;28;20068;-47
2021/11/01 00:10:29;;;;;;;2.13;0.20;;;19.90;55.90;;;;;;5061111;28;20072;-46
2021/11/01 00:12:56;;;;;;;1.90;0.40;;;19.90;55.90;;;;;;5057289;28;20533;-46
2021/11/01 00:15:23;;;;;;;3.75;0.30;;;19.90;55.90;;;;;;5055583;28;20059;-46
2021/11/01 00:17:50;;;;;;;3.08;0.45;;;19.90;55.90;;;;;;5054882;28;20073;-46
2021/11/01 00:20:18;;;;;;;1.10;0.10;;;19.90;55.90;;;;;;5051432;28;20542;-46
2021/11/01 00:22:45;;;;;;;4.18;0.60;;;19.90;55.80;;;;;;5053697;28;20069;-46
2021/11/01 00:25:12;;;;;;;1.95;0.30;;;19.90;55.80;;;;;;5059103;28;20060;-46
2021/11/01 00:27:40;;;;;;;3.65;0.10;;;19.90;55.90;;;;;;5057419;28;20037;-46
2021/11/01 00:30:11;;;;;;;2.70;0.30;;;19.90;55.80;;;;;;5062864;28;20037;-47
2021/11/01 00:32:39;;;;;;;2.58;0.35;;;19.90;55.80;;;;;;5050495;28;20055;-46
2021/11/01 00:35:07;;;;;;;2.00;0.10;;;19.90;55.80;;;;;;5056234;28;20047;-46
2021/11/01 00:37:34;;;;;;;1.67;0.17;;;19.80;55.70;;;;;;5054849;28;20052;-46
2021/11/01 00:40:02;;;;;;;4.57;0.45;;;19.80;55.70;;;;;;5055751;28;20048;-46
2021/11/01 00:42:29;;;;;;;2.50;0.30;;;19.80;55.70;;;;;;5056669;28;20048;-46
2021/11/01 00:44:57;;;;;;;1.95;0.30;;;19.80;55.70;;;;;;5055836;28;20037;-46
2021/11/01 00:47:25;;;;;;;3.00;0.10;;;19.80;55.80;;;;;;5051745;28;20550;-46
2021/11/01 00:49:53;;;;;;;1.25;0.35;;;19.80;55.70;;;;;;5055562;28;20041;-46
2021/11/01 00:52:24;;;;;;;2.58;0.10;;;19.80;55.70;;;;;;5061023;28;20127;-46
2021/11/01 00:54:57;;;;;;;0.90;0.20;;;19.80;55.70;;;;;;5057353;28;20041;-46
2021/11/01 00:57:24;;;;;;;2.13;0.15;;;19.80;55.70;;;;;;5054586;28;20048;-47
2021/11/01 00:59:51;;;;;;;0.82;0.82;;;19.80;55.70;;;;;;5061909;28;20033;-46
2021/11/01 01:02:20;;;;;;;1.48;0.20;;;19.80;55.70;;;;;;5064062;28;20041;-46
2021/11/01 01:04:47;;;;;;;1.50;0.17;;;19.70;55.60;;;;;;5051161;28;20079;-46
2021/11/01 01:07:14;;;;;;;1.90;0.38;;;19.70;55.60;;;;;;5058728;28;20435;-46
2021/11/01 01:09:41;;;;;;;6.97;0.30;;;19.80;55.70;;;;;;5054014;28;20036;-46
2021/11/01 01:12:09;;;;;;;1.60;0.20;;;19.70;55.60;;;;;;5051376;28;20120;-46
2021/11/01 01:14:41;;;;;;;0.20;0.17;;;19.80;55.70;;;;;;5049683;28;20048;-46
2021/11/01 01:17:08;;;;;;;3.33;0.20;;;19.70;55.60;;;;;;5056062;28;20045;-46
2021/11/01 01:19:45;;;;;;;1.38;0.10;;;19.70;55.60;;;;;;5054113;28;20111;-46
2021/11/01 01:22:18;;;;;;;1.75;0.50;;;19.70;55.60;;;;;;5055504;28;20068;-46
2021/11/01 01:24:46;;;;;;;2.67;0.20;;;19.70;55.60;;;;;;5058150;28;20045;-46
2021/11/01 01:27:13;;;;;;;7.13;0.30;;;19.70;55.60;;;;;;5055887;28;20036;-46
2021/11/01 01:29:40;;;;;;;1.10;0.30;;;19.70;55.60;;;;;;5064672;28;20218;-46
2021/11/01 01:32:07;;;;;;;3.70;0.20;;;19.70;55.60;;;;;;5052545;28;20041;-47
2021/11/01 01:34:34;;;;;;;2.75;0.10;;;19.70;55.50;;;;;;5065066;28;20040;-46
2021/11/01 01:37:03;;;;;;;1.95;0.50;;;19.70;55.50;;;;;;5056380;28;20041;-46
2021/11/01 01:39:30;;;;;;;1.60;0.10;;;19.70;55.50;;;;;;5055574;28;20626;-46
2021/11/01 01:41:57;;;;;;;4.68;0.25;;;19.70;56.10;;;;;;5052697;28;20414;-48
2021/11/01 01:44:24;;;;;;;0.95;0.10;;;19.70;55.50;;;;;;5049897;28;20525;-46
2021/11/01 01:46:51;;;;;;;3.53;0.85;;;19.60;55.50;;;;;;5052080;28;20037;-46
2021/11/01 01:49:18;;;;;;;2.20;0.85;;;19.70;55.60;;;;;;5057974;28;20044;-46
2021/11/01 01:51:46;;;;;;;2.92;0.90;;;19.60;55.50;;;;;;5054284;28;20514;-46
2021/11/01 01:54:15;;;;;;;2.65;0.30;;;19.60;55.50;;;;;;5052680;28;20041;-46
2021/11/01 01:56:42;;;;;;;2.97;0.43;;;19.60;55.40;;;;;;5056890;28;20609;-46
2021/11/01 01:59:21;;;;;;;2.67;0.17;;;19.60;55.40;;;;;;5064413;28;20147;-46
2021/11/01 02:01:49;;;;;;;4.03;0.20;;;19.70;55.50;;;;;;5058380;28;20052;-46
2021/11/01 02:04:19;;;;;;;2.47;0.22;;;19.60;55.40;;;;;;5059268;28;20041;-46
2021/11/01 02:07:12;;;;;;;1.27;0.60;;;19.60;55.40;;;;;;5062577;28;20037;-46
2021/11/01 02:09:52;;;;;;;0.30;0.10;;;19.60;55.40;;;;;;5053866;28;20075;-52
2021/11/01 02:12:23;;;;;;;3.35;0.20;;;19.60;55.40;;;;;;5057505;28;20048;-46
2021/11/01 02:14:55;;;;;;;3.25;0.20;;;19.60;55.40;;;;;;5057725;28;20040;-46
2021/11/01 02:17:25;;;;;;;1.80;0.38;;;19.60;55.40;;;;;;5053366;28;20055;-46
2021/11/01 02:19:54;;;;;;;2.30;0.30;;;19.60;55.40;;;;;;5054047;28;20052;-46
2021/11/01 02:22:31;;;;;;;1.50;0.10;;;19.60;55.40;;;;;;5061326;28;20045;-46
2021/11/01 02:25:04;;;;;;;2.58;0.63;;;19.60;55.30;;;;;;5057187;28;20053;-46
2021/11/01 02:27:36;;;;;;;3.90;0.15;;;19.60;55.30;;;;;;5057004;28;20387;-46
2021/11/01 02:30:05;;;;;;;3.20;0.10;;;19.60;55.30;;;;;;5062260;28;20036;-46
2021/11/01 02:32:33;;;;;;;0.52;0.22;;;19.60;55.30;;;;;;5057934;28;20498;-46
2021/11/01 02:35:00;;;;;;;1.00;0.25;;;19.60;55.30;;;;;;5056889;28;20067;-46
2021/11/01 02:37:27;;;;;;;2.50;0.30;;;19.50;55.20;;;;;;5058171;28;20514;-45
2021/11/01 02:39:56;;;;;;;1.83;0.30;;;19.60;55.30;;;;;;5062886;28;20047;-46
2021/11/01 02:42:26;;;;;;;4.57;0.10;;;19.50;55.20;;;;;;5058488;28;20041;-54
2021/11/01 02:44:57;;;;;;;4.00;0.30;;;19.50;55.20;;;;;;5054955;28;20616;-46
2021/11/01 02:47:24;;;;;;;4.13;0.10;;;19.50;55.20;;;;;;5055185;28;20132;-45
2021/11/01 02:49:52;;;;;;;2.42;0.30;;;19.50;55.80;;;;;;5061638;28;20067;-46
2021/11/01 02:52:19;;;;;;;0.73;0.10;;;19.50;55.20;;;;;;5059649;28;20056;-46
2021/11/01 02:54:46;;;;;;;2.65;0.88;;;19.50;55.20;;;;;;5059811;28;20036;-46
2021/11/01 02:57:14;;;;;;;5.63;0.10;;;19.50;55.10;;;;;;5055327;28;20505;-47
2021/11/01 02:59:41;;;;;;;1.65;0.20;;;19.60;55.20;;;;;;5067504;28;20036;-46
2021/11/01 03:02:09;;;;;;;2.17;0.10;;;19.50;55.10;;;;;;5063692;28;20124;-46
2021/11/01 03:04:36;;;;;;;1.40;1.02;;;19.50;55.10;;;;;;5058780;28;20041;-46
2021/11/01 03:07:04;;;;;;;0.70;0.20;;;19.50;55.10;;;;;;5055247;28;20052;-46
2021/11/01 03:09:33;;;;;;;2.17;0.20;;;19.50;55.10;;;;;;5056562;28;20063;-45
2021/11/01 03:12:03;;;;;;;3.30;0.20;;;19.50;55.00;;;;;;5055429;28;20043;-46
2021/11/01 03:14:40;;;;;;;2.03;0.38;;;19.60;55.10;;;;;;5063571;28;20056;-46
2021/11/01 03:17:15;;;;;;;1.92;0.20;;;19.50;55.00;;;;;;5063166;28;20125;-46
2021/11/01 03:19:48;;;;;;;4.72;0.10;;;19.50;55.10;;;;;;5057292;28;20053;-46
2021/11/01 03:22:17;;;;;;;2.08;0.10;;;19.50;55.00;;;;;;5062093;28;20041;-50
2021/11/01 03:24:59;;;;;;;1.98;0.20;;;19.50;55.00;;;;;;5058281;28;20041;-46
2021/11/01 03:27:29;;;;;;;0.40;0.10;;;19.50;55.60;;;;;;5054647;28;20127;-45
2021/11/01 03:29:56;;;;;;;2.08;0.22;;;19.50;55.00;;;;;;5066429;28;20029;-46
2021/11/01 03:32:25;;;;;;;1.00;0.63;;;19.50;55.00;;;;;;5067405;28;20048;-47
2021/11/01 03:34:52;;;;;;;0.80;0.30;;;19.50;55.00;;;;;;5065616;28;20079;-46
2021/11/01 03:37:20;;;;;;;3.50;0.65;;;19.50;54.90;;;;;;5061654;28;20045;-46
2021/11/01 03:39:48;;;;;;;3.85;0.20;;;19.50;55.00;;;;;;5055322;28;20064;-46
2021/11/01 03:42:16;;;;;;;4.63;0.60;;;19.50;54.90;;;;;;5053549;28;20487;-46
2021/11/01 03:44:47;;;;;;;0.50;0.10;;;19.50;54.90;;;;;;5052653;28;20039;-46
2021/11/01 03:47:16;;;;;;;3.50;0.20;;;19.50;54.90;;;;;;5056230;28;20099;-46
2021/11/01 03:49:53;;;;;;;3.63;0.10;;;19.50;54.90;;;;;;5067491;28;20127;-46
2021/11/01 03:52:23;;;;;;;0.40;0.32;;;19.50;54.90;;;;;;5057700;28;20465;-46
2021/11/01 03:54:52;;;;;;;0.85;0.10;;;19.50;54.90;;;;;;5061187;28;20043;-46
2021/11/01 03:57:20;;;;;;;1.13;0.10;;;19.50;54.90;;;;;;5057090;28;20039;-46
2021/11/01 03:59:48;;;;;;;0.30;0.10;;;19.50;54.90;;;;;;5053205;28;20045;-46
2021/11/01 04:02:19;;;;;;;0.57;0.17;;;19.50;54.80;;;;;;5053028;28;20844;-46
2021/11/01 04:04:50;;;;;;;2.22;0.10;;;19.50;54.80;;;;;;5061447;28;20546;-46
2021/11/01 04:07:18;;;;;;;1.67;0.20;;;19.50;54.80;;;;;;5058136;28;20065;-46
2021/11/01 04:09:45;;;;;;;2.00;0.28;;;19.40;54.70;;;;;;5058183;28;20040;-46
2021/11/01 04:12:14;;;;;;;1.42;0.10;;;19.40;54.70;;;;;;5056140;28;20040;-46
2021/11/01 04:14:44;;;;;;;1.27;0.10;;;19.50;54.80;;;;;;5051707;28;20040;-46
2021/11/01 04:17:21;;;;;;;1.17;0.13;;;19.40;54.70;;;;;;5051039;28;20773;-46
2021/11/01 04:19:57;;;;;;;1.70;0.10;;;19.40;54.70;;;;;;5056457;28;20065;-46
2021/11/01 04:22:26;;;;;;;2.85;0.10;;;19.40;54.70;;;;;;5054902;28;20052;-46
2021/11/01 04:24:54;;;;;;;2.78;0.20;;;19.40;54.60;;;;;;5054617;28;20589;-46
2021/11/01 04:27:21;;;;;;;1.23;0.10;;;19.40;54.60;;;;;;5055334;28;20036;-46
2021/11/01 04:29:48;;;;;;;2.22;0.15;;;19.40;54.60;;;;;;5061756;28;20045;-46
2021/11/01 04:32:23;;;;;;;3.50;0.20;;;19.40;54.60;;;;;;5052245;28;20131;-45
2021/11/01 04:34:57;;;;;;;2.35;0.20;;;19.40;54.60;;;;;;5053148;28;20040;-46
2021/11/01 04:37:24;;;;;;;0.40;0.32;;;19.40;54.60;;;;;;5060323;28;20598;-46
2021/11/01 04:40:17;;;;;;;1.15;0.10;;;19.40;54.60;;;;;;5056503;28;20048;-46
2021/11/01 04:53:44;;;;;;;0.57;0.10;;;19.40;54.60;;;;;;5062183;28;20033;-46
2021/11/01 04:56:12;;;;;;;0.43;0.10;;;19.40;54.50;;;;;;5051221;28;20047;-45
2021/11/01 04:58:42;;;;;;;2.55;1.38;;;19.40;54.50;;;;;;5060967;28;20037;-46
2021/11/01 05:01:09;;;;;;;1.45;0.10;;;19.40;54.50;;;;;;5061638;28;20041;-46
2021/11/01 05:03:38;;;;;;;2.90;0.10;;;19.40;54.50;;;;;;5054249;28;20968;-45
2021/11/01 05:06:07;;;;;;;1.05;0.28;;;19.40;54.40;;;;;;5051210;28;20045;-46
2021/11/01 05:08:41;;;;;;;2.28;0.22;;;19.40;54.40;;;;;;5052373;28;20033;-45
2021/11/01 05:11:15;;;;;;;1.40;0.20;;;19.40;54.40;;;;;;5060823;28;20537;-46
2021/11/01 05:13:42;;;;;;;1.23;0.20;;;19.40;54.40;;;;;;5054511;28;20044;-46
2021/11/01 05:16:14;;;;;;;1.25;0.20;;;19.40;54.40;;;;;;5059048;28;20414;-46
2021/11/01 05:18:47;;;;;;;0.40;0.10;;;19.40;54.90;;;;;;5059625;28;20055;-46
2021/11/01 05:21:28;;;;;;;2.92;0.65;;;19.30;54.30;;;;;;5054799;28;20033;-46
2021/11/01 05:23:59;;;;;;;2.90;1.05;;;19.40;54.30;;;;;;5058280;28;20089;-46
2021/11/01 05:26:35;;;;;;;0.52;0.10;;;19.40;54.40;;;;;;5052954;28;20561;-46
2021/11/01 05:29:05;;;;;;;2.70;0.88;;;19.40;54.30;;;;;;5066880;28;20147;-46
2021/11/01 05:31:42;;;;;;;0.50;0.20;;;19.40;54.30;;;;;;5057006;28;20126;-46
2021/11/01 05:34:11;;;;;;;2.15;0.20;;;19.40;54.30;;;;;;5057379;28;20115;-46
2021/11/01 05:36:39;;;;;;;3.33;0.10;;;19.40;54.30;;;;;;5052354;28;20041;-46
2021/11/01 05:39:07;;;;;;;2.08;0.30;;;19.40;54.30;;;;;;5050947;28;20116;-46
2021/11/01 05:41:34;;;;;;;0.45;0.10;;;19.40;54.30;;;;;;5052766;28;20052;-46
2021/11/01 05:44:01;;;;;;;1.83;0.13;;;19.30;54.20;;;;;;5056378;28;20131;-46
2021/11/01 05:46:34;;;;;;;1.15;0.20;;;19.40;54.20;;;;;;5054570;28;20051;-46
2021/11/01 05:49:03;;;;;;;0.40;0.10;;;19.40;54.20;;;;;;5055041;28;20045;-46
2021/11/01 05:51:31;;;;;;;1.73;0.10;;;19.30;54.20;;;;;;5057016;28;20051;-46
2021/11/01 05:54:03;;;;;;;0.45;0.10;;;19.30;54.20;;;;;;5054625;28;20640;-46
2021/11/01 05:56:36;;;;;;;3.60;0.10;;;19.40;54.20;;;;;;5051351;28;20102;-46
2021/11/01 05:59:21;;;;;;;1.38;0.00;;;19.40;54.20;;;;;;5061762;28;20047;-46
2021/11/01 06:04:48;;;;;;;;;;;19.40;54.20;;;;;;5053322;28;20044;-44
2021/11/01 06:07:25;;;;;;;1.23;0.30;;;19.30;54.20;;;;;;5055989;28;19960;-44
2021/11/01 06:09:59;;;;;;;0.20;0.10;;;19.30;54.40;;;;;;5059683;28;20097;-44
2021/11/01 06:15:12;;;;;;;0.95;0.10;;;19.30;54.30;;;;;;5052398;28;20044;-46
2021/11/01 06:17:40;;;;;;;2.13;0.10;;;19.30;54.20;;;;;;5052920;28;20036;-44
2021/11/01 06:20:10;;;;;;;0.75;0.25;;;19.30;54.20;;;;;;5051249;28;20212;-46
2021/11/01 06:22:37;;;;;;;1.40;0.22;;;19.30;54.20;;;;;;5054888;28;20063;-46
2021/11/01 06:25:08;;;;;;;1.77;0.10;;;19.30;54.20;;;;;;5054302;28;20033;-44
2021/11/01 06:27:36;;;;;;;0.43;0.10;;;19.30;54.20;;;;;;5055986;28;20533;-46
2021/11/01 06:30:11;;;;;;;0.85;0.10;;;19.30;54.10;;;;;;5062878;28;20047;-44
2021/11/01 06:32:43;;;;;;;0.93;0.10;;;19.30;54.10;;;;;;5049326;28;20055;-46
2021/11/01 06:43:25;;;;;;;1.73;0.43;;;19.30;54.20;;;;;;5061824;28;20053;-46
2021/11/01 06:51:44;;;;;;;1.45;0.57;;;19.30;54.20;;;;;;5056775;28;20037;-46
2021/11/01 07:16:28;;;;;;;0.40;0.10;;;19.30;54.10;;;;;;4983108;28;20867;-46
2021/11/01 07:18:58;;;;;;;0.40;0.10;;;19.30;54.10;;;;;;5004429;28;20094;-46
2021/11/01 08:22:52;;;;;;;1.63;0.20;;;19.40;53.80;;;;;;5053615;28;20075;-46
2021/11/01 08:37:06;;;;;;;0.20;0.10;;;19.40;53.70;;;;;;5011240;28;20568;-46
2021/11/01 08:42:42;;;;;;;0.55;0.10;;;19.40;53.70;;;;;;4938552;28;20062;-45
2021/11/01 09:04:32;;;;;;;1.45;0.10;;;19.50;53.50;;;;;;4865014;29;20049;-46
2021/11/01 09:07:18;;;;;;;4.95;0.32;;;19.50;53.50;;;;;;4928004;29;20047;-46
2021/11/01 09:21:01;;;;;;;2.22;0.15;;;19.60;53.40;;;;;;4869706;29;20538;-46
2021/11/01 09:23:48;;;;;;;1.13;0.08;;;19.50;53.30;;;;;;4871923;29;20443;-46
2021/11/01 09:26:21;;;;;;;1.52;0.10;;;19.50;53.20;;;;;;4872035;29;20455;-46
2021/11/01 09:28:54;;;;;;;0.57;0.10;;;19.60;53.20;;;;;;4870810;29;20549;-46
2021/11/01 09:36:53;;;;;;;1.45;0.45;;;19.70;53.20;;;;;;4927118;29;20047;-46
2021/11/01 09:39:43;;;;;;;0.20;0.10;;;19.70;53.10;;;;;;4941122;28;20788;-46
2021/11/01 09:42:10;;;;;;;1.25;0.10;;;19.70;53.10;;;;;;4965397;28;20049;-46
2021/11/01 09:44:37;;;;;;;0.10;0.10;;;19.70;53.10;;;;;;4970667;28;20657;-46
2021/11/01 09:47:05;;;;;;;2.90;0.10;;;19.80;53.10;;;;;;4977194;28;20054;-46
2021/11/01 09:49:34;;;;;;;1.42;0.10;;;19.80;53.10;;;;;;5015170;28;20182;-46
2021/11/01 09:52:08;;;;;;;0.95;0.10;;;19.80;53.10;;;;;;5057370;28;20132;-46
2021/11/01 09:54:37;;;;;;;1.42;0.10;;;19.90;53.10;;;;;;5059018;28;20037;-46
2021/11/01 09:57:08;;;;;;;0.65;0.10;;;19.80;53.00;;;;;;5056891;28;20036;-46
2021/11/01 09:59:37;;;;;;;1.95;0.10;;;19.90;53.00;;;;;;5065515;28;20040;-46
2021/11/01 10:02:06;;;;;;;0.75;0.00;;;19.90;52.90;;;;;;5055236;28;20037;-46
2021/11/01 10:04:35;;;;;;;0.13;0.10;;;19.90;52.90;;;;;;5055607;28;20151;-46
2021/11/01 10:07:23;;;;;;;0.25;0.10;;;19.90;52.90;;;;;;5054160;28;20871;-46
2021/11/01 10:09:51;;;;;;;1.15;0.47;;;20.00;52.90;;;;;;5059378;28;20047;-46
2021/11/01 10:12:21;;;;;;;1.05;0.20;;;20.00;52.90;;;;;;5055991;28;20044;-46
2021/11/01 10:14:54;;;;;;;0.15;0.10;;;20.00;52.80;;;;;;5062415;28;20064;-47
2021/11/01 10:17:35;;;;;;;0.50;0.10;;;20.00;52.70;;;;;;5052153;28;20051;-45
2021/11/01 10:20:06;;;;;;;1.77;0.30;;;20.00;52.60;;;;;;5057831;28;20049;-46
2021/11/01 10:22:37;;;;;;;2.58;0.75;;;20.10;52.60;;;;;;5056672;28;20045;-47
2021/11/01 10:25:06;;;;;;;0.95;0.10;;;20.10;52.60;;;;;;5056030;28;20041;-46
2021/11/01 10:27:35;;;;;;;0.60;0.30;;;20.20;52.50;;;;;;5057509;28;20041;-46
2021/11/01 10:30:06;;;;;;;0.50;0.20;;;20.20;52.40;;;;;;5062662;28;20033;-46
2021/11/01 10:32:36;;;;;;;0.38;0.15;;;20.20;52.30;;;;;;5052640;28;20044;-46
2021/11/01 10:35:15;;;;;;;0.45;0.10;;;20.30;52.30;;;;;;5054476;28;20056;-46
2021/11/01 10:38:14;;;;;;;1.63;0.10;;;20.30;52.10;;;;;;5061114;28;20041;-46
2021/11/01 10:40:53;;;;;;;0.88;0.10;;;20.40;52.00;;;;;;5055071;28;20151;-46
2021/11/01 11:14:09;;;;;;;1.75;0.00;;;20.90;51.00;;;;;;5047153;28;20509;-46
2021/11/01 11:17:04;;;;;;;1.65;0.10;;;20.90;50.90;;;;;;5055684;28;20064;-46
2021/11/01 11:19:44;;;;;;;1.00;0.10;;;20.90;50.80;;;;;;5060891;28;20079;-46
2021/11/01 11:22:33;;;;;;;0.20;0.20;;;21.00;50.70;;;;;;5058796;28;20124;-46
2021/11/01 11:33:52;;;;;;;0.13;0.10;;;21.30;50.10;;;;;;4939310;28;20038;-46
2021/11/01 11:39:28;;;;;;;1.10;0.20;;;21.40;49.70;;;;;;4953304;28;20102;-46
2021/11/01 11:47:43;;;;;;;4.10;0.47;;;21.50;49.30;;;;;;4934297;28;20042;-47
2021/11/01 11:50:13;;;;;;;3.72;0.20;;;21.60;49.10;;;;;;4950725;28;20155;-46
2021/11/01 11:52:40;;;;;;;2.78;1.20;;;21.60;49.00;;;;;;4958164;28;20400;-46
2021/11/01 11:55:20;;;;;;;4.72;0.32;;;21.70;48.90;;;;;;4955511;28;20050;-46
2021/11/01 11:57:59;;;;;;;3.40;0.30;;;21.70;48.70;;;;;;4958111;28;20100;-46
2021/11/01 12:00:28;;;;;;;2.58;0.10;;;21.70;48.50;;;;;;5041981;28;20135;-46
2021/11/01 12:02:57;;;;;;;2.17;0.30;;;21.80;48.50;;;;;;5040351;28;20057;-46
2021/11/01 12:05:47;;;;;;;1.10;0.20;;;21.80;48.40;;;;;;5028123;28;20073;-46
2021/11/01 12:08:22;;;;;;;2.60;0.80;;;21.90;48.20;;;;;;5044904;28;20057;-47
2021/11/01 12:19:23;;;;;;;1.95;0.10;;;22.00;47.90;;;;;;5012772;28;20050;-46
2021/11/01 12:21:53;;;;;;;1.25;0.20;;;22.00;47.80;;;;;;5016311;28;20038;-46
2021/11/01 12:24:23;;;;;;;3.65;0.15;;;22.00;47.70;;;;;;5004368;28;20049;-48
2021/11/01 12:26:59;;;;;;;1.05;0.30;;;22.10;47.70;;;;;;5024360;28;20426;-46
2021/11/01 12:29:26;;;;;;;0.95;0.10;;;22.10;47.60;;;;;;5019936;28;20053;-47
2021/11/01 12:32:01;;;;;;;0.68;0.10;;;22.10;47.50;;;;;;5019497;28;20049;-47
2021/11/01 12:34:29;;;;;;;2.90;0.30;;;22.10;47.30;;;;;;5025768;28;20506;-46
2021/11/01 12:37:01;;;;;;;2.97;0.20;;;22.10;46.30;;;;;;5025861;28;20104;-46
2021/11/01 12:39:34;;;;;;;2.38;0.10;;;22.10;45.80;;;;;;5006970;28;20060;-47
2021/11/01 12:42:24;;;;;;;4.55;0.10;;;22.10;45.50;;;;;;5015974;28;20433;-46
2021/11/01 12:58:53;;;;;;;1.42;0.20;;;21.80;46.50;;;;;;5066181;28;20051;-46
2021/11/01 13:01:21;;;;;;;2.97;0.30;;;21.80;46.80;;;;;;5058585;28;20145;-46
2021/11/01 13:03:50;;;;;;;1.25;0.10;;;21.80;47.50;;;;;;5059241;28;20040;-46
2021/11/01 13:06:32;;;;;;;3.63;0.20;;;21.70;47.00;;;;;;5066728;28;20131;-46
2021/11/01 13:09:06;;;;;;;0.30;0.10;;;21.70;47.20;;;;;;5057718;28;20128;-46
2021/11/01 13:11:56;;;;;;;0.45;0.10;;;21.60;47.30;;;;;;5057980;28;20048;-46
2021/11/01 13:14:42;;;;;;;1.33;0.10;;;21.60;47.40;;;;;;5056038;28;20094;-46
2021/11/01 13:19:56;;;;;;;1.77;0.10;;;21.60;48.00;;;;;;5066751;28;20397;-46
2021/11/01 13:22:27;;;;;;;3.20;0.40;;;21.60;48.00;;;;;;5060117;28;20409;-46
2021/11/01 13:25:02;;;;;;;3.20;0.30;;;21.70;47.80;;;;;;5054915;28;20124;-46
2021/11/01 13:27:37;;;;;;;1.15;0.10;;;21.70;47.60;;;;;;5057055;28;20037;-46
2021/11/01 13:36:07;;;;;;;2.30;0.20;;;21.60;47.50;;;;;;5052455;28;20037;-46
2021/11/01 13:38:35;;;;;;;0.55;0.10;;;21.60;47.60;;;;;;5086355;28;20048;-46
2021/11/01 13:41:09;;;;;;;4.72;0.28;;;21.50;47.70;;;;;;5058862;28;20045;-46
2021/11/01 13:43:37;;;;;;;1.45;0.10;;;21.50;47.80;;;;;;5056092;28;20102;-46
2021/11/01 13:46:05;;;;;;;1.45;0.30;;;21.50;47.90;;;;;;5057213;28;20098;-46
2021/11/01 13:48:33;;;;;;;1.52;0.10;;;21.40;47.90;;;;;;5058625;28;20048;-46
2021/11/01 13:51:09;;;;;;;1.10;0.10;;;21.40;48.10;;;;;;5057898;28;20438;-46
2021/11/01 13:53:56;;;;;;;1.67;0.10;;;21.40;48.20;;;;;;5051650;28;20127;-46
2021/11/01 13:56:27;;;;;;;0.85;0.10;;;21.40;48.30;;;;;;5055284;28;20049;-46
2021/11/01 13:58:58;;;;;;;1.20;0.10;;;21.30;48.40;;;;;;5068170;28;20416;-46
2021/11/01 14:01:58;;;;;;;0.50;0.10;;;21.20;48.40;;;;;;5056533;28;20049;-46
2021/11/01 14:13:05;;;;;;;1.90;0.10;;;21.10;49.00;;;;;;4997500;28;20198;-46
2021/11/01 14:16:07;;;;;;;9.50;0.10;;;21.00;49.10;;;;;;4994661;28;20042;-45
2021/11/01 14:30:16;;;;;;;0.77;0.10;;;20.80;49.70;;;;;;4907965;29;20509;-46
2021/11/01 14:36:03;;;;;;;0.63;0.10;;;20.80;49.80;;;;;;4906518;29;20098;-46
2021/11/01 15:09:39;;;;;;;1.38;0.43;;;20.40;50.80;;;;;;4977320;28;20145;-46
2021/11/01 15:17:58;;;;;;;0.35;0.10;;;20.30;51.10;;;;;;4907756;29;20529;-46
2021/11/01 15:20:40;;;;;;;0.98;0.08;;;20.30;51.20;;;;;;4907035;29;20051;-46
2021/11/01 15:23:15;;;;;;;3.45;0.55;;;20.30;51.30;;;;;;4894082;29;20186;-46
2021/11/01 15:26:12;;;;;;;2.30;0.10;;;20.30;51.40;;;;;;4903363;29;20201;-46
2021/11/01 15:37:21;;;;;;;0.50;0.10;;;20.20;51.70;;;;;;4945319;28;20534;-46
2021/11/01 15:40:11;;;;;;;0.30;0.00;;;20.20;51.70;;;;;;4992051;28;20586;-46
2021/11/01 16:16:14;;;;;;;0.45;0.10;;;20.00;52.40;;;;;;5064969;28;20032;-46
2021/11/01 16:18:44;;;;;;;0.20;0.10;;;20.00;52.50;;;;;;5060810;28;20048;-46
2021/11/01 16:21:12;;;;;;;0.57;0.50;;;20.00;53.10;;;;;;5059079;28;20041;-47
2021/11/01 16:23:41;;;;;;;0.10;0.00;;;20.00;52.50;;;;;;5053468;28;20082;-46
2021/11/01 16:26:18;;;;;;;4.38;0.10;;;20.00;52.60;;;;;;5056979;28;20041;-46
2021/11/01 16:28:48;;;;;;;2.25;0.10;;;19.90;52.60;;;;;;5085290;28;20040;-46
2021/11/01 16:31:34;;;;;;;0.10;0.00;;;19.90;52.60;;;;;;5059033;28;20049;-46
2021/11/01 16:34:07;;;;;;;0.38;0.10;;;19.90;52.60;;;;;;5059512;28;20041;-46
2021/11/01 16:39:41;;;;;;;0.10;0.10;;;19.90;52.70;;;;;;4999729;28;20124;-46
2021/11/01 16:42:08;;;;;;;0.10;0.05;;;19.90;52.70;;;;;;4995071;28;20050;-46
2021/11/01 16:44:39;;;;;;;0.40;0.30;;;19.90;52.80;;;;;;4995363;28;20584;-46
2021/11/01 16:47:07;;;;;;;0.93;0.10;;;19.90;52.80;;;;;;4989510;28;20042;-46
2021/11/01 16:49:35;;;;;;;0.43;0.13;;;19.80;52.80;;;;;;4994982;28;20058;-46
2021/11/01 16:52:10;;;;;;;0.08;0.00;;;19.80;52.80;;;;;;4999313;28;20585;-46
2021/11/01 16:54:41;;;;;;;0.95;0.00;;;19.80;53.40;;;;;;4996164;28;20038;-47
2021/11/01 16:57:13;;;;;;;0.98;0.10;;;19.80;52.90;;;;;;4994245;28;20140;-47
2021/11/01 16:59:50;;;;;;;0.32;0.10;;;19.80;53.00;;;;;;5004425;28;20527;-45
2021/11/01 17:05:03;;;;;;;0.40;0.10;;;19.80;52.90;;;;;;4992793;28;20019;-46
2021/11/01 17:07:40;;;;;;;1.20;0.10;;;19.70;53.10;;;;;;4988402;28;20042;-46
2021/11/01 17:10:30;;;;;;;0.10;0.10;;;19.80;53.10;;;;;;5000695;28;20072;-46
2021/11/01 17:24:24;;;;;;;0.00;0.00;;;19.70;53.20;;;;;;4981468;28;20070;-46
2021/11/01 17:27:05;;;;;;;0.77;0.00;;;19.70;53.20;;;;;;4966385;28;20050;-46
2021/11/01 17:30:05;;;;;;;0.10;0.08;;;19.70;53.30;;;;;;4986020;28;20074;-46
2021/11/01 17:35:31;;;;;;;0.20;0.00;;;19.70;53.40;;;;;;4985728;28;20170;-46
2021/11/01 18:40:06;;;;;;;0.55;0.10;;;19.50;53.80;;;;;;5086090;28;20147;-46
2021/11/01 18:42:56;;;;;;;0.38;0.10;;;19.50;53.80;;;;;;5094451;28;20059;-46
2021/11/01 18:51:04;;;;;;;0.10;0.10;;;19.50;53.80;;;;;;5083745;28;20049;-46
2021/11/01 18:53:35;;;;;;;1.85;0.10;;;19.50;53.90;;;;;;5079912;28;20090;-46
2021/11/01 18:56:05;;;;;;;0.47;0.20;;;19.50;53.90;;;;;;5084502;28;20044;-46
2021/11/01 18:58:35;;;;;;;0.20;0.20;;;19.50;53.80;;;;;;5078505;28;20040;-46
2021/11/01 19:01:05;;;;;;;2.72;0.32;;;19.50;53.80;;;;;;5071848;28;20049;-46
2021/11/01 19:03:37;;;;;;;0.30;0.20;;;19.50;53.80;;;;;;5076350;28;20041;-46
2021/11/01 19:06:14;;;;;;;1.45;0.20;;;19.50;53.80;;;;;;5082076;28;20043;-46
2021/11/01 19:08:51;;;;;;;0.85;0.30;;;19.50;54.40;;;;;;5068304;28;20115;-46
2021/11/01 19:14:56;;;;;;;0.10;0.10;;;19.50;53.80;;;;;;5082375;28;20050;-46
2021/11/01 20:04:49;;;;;;;0.65;0.30;;;19.40;53.80;;;;;;5013858;28;20728;-46
2021/11/01 20:13:02;;;;;;;0.15;0.10;;;19.40;53.80;;;;;;5009576;28;20073;-46
2021/11/01 21:25:08;;;;;;;0.90;0.65;;;19.20;53.80;;;;;;5071530;28;20417;-46
2021/11/01 21:27:35;;;;;;;0.95;0.10;;;19.20;53.80;;;;;;5072726;28;20459;-46
2021/11/01 21:30:02;;;;;;;1.10;0.10;;;19.30;53.80;;;;;;5075030;28;20040;-46
2021/11/01 21:32:30;;;;;;;0.10;0.10;;;19.20;53.70;;;;;;5078904;28;24975;-46
2021/11/01 21:35:00;;;;;;;0.30;0.10;;;19.30;53.80;;;;;;5081618;28;20765;-46
2021/11/01 21:37:28;;;;;;;2.75;0.10;;;19.30;53.70;;;;;;5074071;28;20064;-46
2021/11/01 21:39:57;;;;;;;0.50;0.10;;;19.30;53.80;;;;;;5074131;28;20047;-46
2021/11/01 21:42:24;;;;;;;0.10;0.10;;;19.30;53.70;;;;;;5075271;28;20042;-46
2021/11/01 21:44:52;;;;;;;0.10;0.10;;;19.30;53.70;;;;;;5078610;28;20036;-46
2021/11/01 21:47:19;;;;;;;0.85;0.10;;;19.30;53.70;;;;;;5075207;28;20097;-46
2021/11/01 21:49:50;;;;;;;0.32;0.10;;;19.30;53.70;;;;;;5077958;28;20044;-46
2021/11/01 21:52:18;;;;;;;0.20;0.10;;;19.30;53.60;;;;;;5072555;28;20040;-47
2021/11/01 21:54:50;;;;;;;0.20;0.20;;;19.30;53.60;;;;;;5077088;28;20036;-46
2021/11/01 21:57:22;;;;;;;0.70;0.22;;;19.30;53.60;;;;;;5076002;28;20075;-53
2021/11/01 22:16:46;;;;;;;0.38;0.10;;;19.30;53.70;;;;;;5072799;28;20086;-46
2021/11/01 22:19:39;;;;;;;1.20;0.20;;;19.20;53.60;;;;;;5074810;28;20123;-46
2021/11/01 22:25:02;;;;;;;0.65;0.10;;;19.20;53.60;;;;;;5065341;28;20036;-46
2021/11/01 22:41:46;;;;;;;0.20;0.10;;;19.20;53.60;;;;;;5076134;28;20066;-46
2021/11/01 22:47:19;;;;;;;0.10;0.10;;;19.20;53.60;;;;;;5083283;28;20127;-46
2021/11/01 22:58:17;;;;;;;0.20;0.10;;;19.20;53.60;;;;;;5074016;28;20055;-46
2021/11/01 23:00:50;;;;;;;0.20;0.10;;;19.20;53.70;;;;;;5077770;28;20437;-46
2021/11/01 23:03:21;;;;;;;0.50;0.10;;;19.20;53.70;;;;;;5076012;28;20106;-46
2021/11/01 23:33:23;;;;;;;0.47;0.10;;;19.20;53.80;;;;;;5044986;28;20063;-46
2021/11/01 23:35:51;;;;;;;0.17;0.10;;;19.20;53.80;;;;;;5041613;28;20045;-46
2021/11/01 23:38:18;;;;;;;1.63;0.10;;;19.20;53.70;;;;;;5059709;28;20049;-47
2021/11/01 23:40:46;;;;;;;0.17;0.10;;;19.20;53.70;;;;;;5047173;28;20053;-46
2021/11/01 23:43:15;;;;;;;0.52;0.10;;;19.30;53.70;;;;;;5048705;28;20607;-46
2021/11/01 23:45:43;;;;;;;0.60;0.10;;;19.20;53.70;;;;;;5051825;28;20048;-46